Valle Di Andalusia — IBTJ — position and weather

sailwx.info

Track history (hours):
 
Tides and Currents Weather Stations Pressure Air Temp Water Temp Dewpoint Dewpoint Depression Visibility Wind Speed Wind Dir Waves Ship Positions

Valle Di Andalusia

Last reported at 2016-Dec-06 17:29 UTC. Time now 2016-Dec-06 18:01 UTC.
Position N 39°05' E 009°02'.

Length 176 m; draft 7.5 m.

Type: Tanker. MMSI: 247046200.

Date/timePositionNaut miles runAvg speedWind from/ knotsBaromVisibWave heightAir tempDewpointWater temp
2016-Dec-06 17:29N 39°05' E 009°02'0 0.0
2016-Dec-06 16:32N 39°05' E 009°02'0 0.0
2016-Dec-06 15:32N 39°05' E 009°02'0 0.0
2016-Dec-06 14:32N 39°05' E 009°02'0 0.0
2016-Dec-06 13:31N 39°05' E 009°02'0 0.0
2016-Dec-06 12:33N 39°05' E 009°02'0 0.0
2016-Dec-06 11:33N 39°05' E 009°02'0 0.0
2016-Dec-06 10:33N 39°05' E 009°02'2 1.6
2016-Dec-06 09:33N 39°04' E 009°04'1 1.2
2016-Dec-06 08:31N 39°03' E 009°04'0 0.0
2016-Dec-06 07:33N 39°03' E 009°04'0 0.0
2016-Dec-06 06:33N 39°03' E 009°04'0 0.1
2016-Dec-06 05:32N 39°03' E 009°04'0 0.0
2016-Dec-06 04:32N 39°03' E 009°04'0 0.0
2016-Dec-06 03:32N 39°03' E 009°04'0 0.0
2016-Dec-06 02:32N 39°03' E 009°04'0 0.0
2016-Dec-06 01:31N 39°03' E 009°04'0 0.0
2016-Dec-06 00:31N 39°03' E 009°04'2 2.0
2016-Dec-05 23:33N 39°01' E 009°04'7 7.4
2016-Dec-05 22:33N 38°55' E 008°60'6 6.5
2016-Dec-05 21:34N 38°51' E 008°53'6 6.3
2016-Dec-05 20:33N 38°49' E 008°45'  
2016-Dec-02 06:26N 40°37' E 003°31'1213.5
2016-Dec-02 05:33N 40°43' E 003°18'1313.2
2016-Dec-02 04:33N 40°51' E 003°03'1313.2
2016-Dec-02 03:33N 40°58' E 002°49'1313.4
2016-Dec-02 02:33N 41°06' E 002°34'  
2016-Nov-29 12:14N 40°53' E 001°55'912.6
2016-Nov-29 11:32N 40°45' E 001°49'1212.2
2016-Nov-29 10:33N 40°34' E 001°42'1313.1
2016-Nov-29 09:33N 40°23' E 001°35'1212.3
2016-Nov-29 08:33N 40°12' E 001°27'1212.1
2016-Nov-29 07:33N 40°01' E 001°20'16411.7
2016-Nov-28 17:32N 37°39' W 000°26'1111.4
2016-Nov-28 16:33N 37°30' W 000°34'1212.1
2016-Nov-28 15:33N 37°23' W 000°46'23312.0
2016-Nov-27 20:05N 35°59' W 005°17'815.4
2016-Nov-27 19:33N 35°58' W 005°27'26110.7
2016-Nov-26 19:10N 38°16' W 010°04'913.2
2016-Nov-26 18:30N 38°24' W 010°06'1212.7
2016-Nov-26 17:32N 38°36' W 010°10'  
Track history (hours):
 
Tides and Currents Weather Stations Pressure Air Temp Water Temp Dewpoint Dewpoint Depression Visibility Wind Speed Wind Dir Waves Ship Positions

Valle Di Andalusia

Last reported at 2016-Dec-06 17:29 UTC. Time now 2016-Dec-06 18:01 UTC.
Position N 39°05' E 009°02'.

Length 176 m; draft 7.5 m.

Type: Tanker. MMSI: 247046200.

Date/timePositionNaut miles runAvg speedWind from/ knotsBaromVisibWave heightAir tempDewpointWater temp
2016-Dec-06 17:29N 39°05' E 009°02'0 0.0
2016-Dec-06 16:32N 39°05' E 009°02'0 0.0
2016-Dec-06 15:32N 39°05' E 009°02'0 0.0
2016-Dec-06 14:32N 39°05' E 009°02'0 0.0
2016-Dec-06 13:31N 39°05' E 009°02'0 0.0
2016-Dec-06 12:33N 39°05' E 009°02'0 0.0
2016-Dec-06 11:33N 39°05' E 009°02'0 0.0
2016-Dec-06 10:33N 39°05' E 009°02'2 1.6
2016-Dec-06 09:33N 39°04' E 009°04'1 1.2
2016-Dec-06 08:31N 39°03' E 009°04'0 0.0
2016-Dec-06 07:33N 39°03' E 009°04'0 0.0
2016-Dec-06 06:33N 39°03' E 009°04'0 0.1
2016-Dec-06 05:32N 39°03' E 009°04'0 0.0
2016-Dec-06 04:32N 39°03' E 009°04'0 0.0
2016-Dec-06 03:32N 39°03' E 009°04'0 0.0
2016-Dec-06 02:32N 39°03' E 009°04'0 0.0
2016-Dec-06 01:31N 39°03' E 009°04'0 0.0
2016-Dec-06 00:31N 39°03' E 009°04'2 2.0
2016-Dec-05 23:33N 39°01' E 009°04'7 7.4
2016-Dec-05 22:33N 38°55' E 008°60'6 6.5
2016-Dec-05 21:34N 38°51' E 008°53'6 6.3
2016-Dec-05 20:33N 38°49' E 008°45'  
2016-Dec-02 06:26N 40°37' E 003°31'1213.5
2016-Dec-02 05:33N 40°43' E 003°18'1313.2
2016-Dec-02 04:33N 40°51' E 003°03'1313.2
2016-Dec-02 03:33N 40°58' E 002°49'1313.4
2016-Dec-02 02:33N 41°06' E 002°34'  
2016-Nov-29 12:14N 40°53' E 001°55'912.6
2016-Nov-29 11:32N 40°45' E 001°49'1212.2
2016-Nov-29 10:33N 40°34' E 001°42'1313.1
2016-Nov-29 09:33N 40°23' E 001°35'1212.3
2016-Nov-29 08:33N 40°12' E 001°27'1212.1
2016-Nov-29 07:33N 40°01' E 001°20'16411.7
2016-Nov-28 17:32N 37°39' W 000°26'1111.4
2016-Nov-28 16:33N 37°30' W 000°34'1212.1
2016-Nov-28 15:33N 37°23' W 000°46'23312.0
2016-Nov-27 20:05N 35°59' W 005°17'815.4
2016-Nov-27 19:33N 35°58' W 005°27'26110.7
2016-Nov-26 19:10N 38°16' W 010°04'913.2
2016-Nov-26 18:30N 38°24' W 010°06'1212.7
2016-Nov-26 17:32N 38°36' W 010°10'  

Dump ship's entire track history